sensor_id;sensor_type;location;lat;lon;timestamp;pressure;altitude;pressure_sealevel;temperature
15607;BMP180;7865;50.918;4.510;2024-02-21T00:00:51;101800.00;;;8.90
15607;BMP180;7865;50.918;4.510;2024-02-21T00:05:53;101786.00;;;8.80
15607;BMP180;7865;50.918;4.510;2024-02-21T00:10:54;101790.00;;;8.80
15607;BMP180;7865;50.918;4.510;2024-02-21T00:15:55;101776.00;;;8.80
15607;BMP180;7865;50.918;4.510;2024-02-21T00:20:56;101767.00;;;8.80
15607;BMP180;7865;50.918;4.510;2024-02-21T00:25:58;101756.00;;;8.90
15607;BMP180;7865;50.918;4.510;2024-02-21T00:30:59;101753.00;;;8.90
15607;BMP180;7865;50.918;4.510;2024-02-21T00:36:01;101740.00;;;8.90
15607;BMP180;7865;50.918;4.510;2024-02-21T00:41:02;101747.00;;;8.90
15607;BMP180;7865;50.918;4.510;2024-02-21T00:46:05;101735.00;;;8.90
15607;BMP180;7865;50.918;4.510;2024-02-21T00:51:07;101717.00;;;8.90
15607;BMP180;7865;50.918;4.510;2024-02-21T00:56:08;101722.00;;;8.90
15607;BMP180;7865;50.918;4.510;2024-02-21T01:01:09;101714.00;;;9.00
15607;BMP180;7865;50.918;4.510;2024-02-21T01:06:10;101712.00;;;9.00
15607;BMP180;7865;50.918;4.510;2024-02-21T01:11:11;101704.00;;;9.00
15607;BMP180;7865;50.918;4.510;2024-02-21T01:16:13;101704.00;;;9.00
15607;BMP180;7865;50.918;4.510;2024-02-21T01:21:17;101701.00;;;9.00
15607;BMP180;7865;50.918;4.510;2024-02-21T01:26:18;101699.00;;;9.00
15607;BMP180;7865;50.918;4.510;2024-02-21T01:31:19;101691.00;;;9.00
15607;BMP180;7865;50.918;4.510;2024-02-21T01:36:21;101674.00;;;9.00
15607;BMP180;7865;50.918;4.510;2024-02-21T01:41:22;101659.00;;;8.80
15607;BMP180;7865;50.918;4.510;2024-02-21T01:46:24;101653.00;;;8.60
15607;BMP180;7865;50.918;4.510;2024-02-21T01:51:31;101636.00;;;8.30
15607;BMP180;7865;50.918;4.510;2024-02-21T01:56:33;101636.00;;;8.20
15607;BMP180;7865;50.918;4.510;2024-02-21T02:01:35;101642.00;;;8.10
15607;BMP180;7865;50.918;4.510;2024-02-21T02:06:36;101639.00;;;8.20
15607;BMP180;7865;50.918;4.510;2024-02-21T02:11:37;101644.00;;;8.30
15607;BMP180;7865;50.918;4.510;2024-02-21T02:16:38;101629.00;;;8.30
15607;BMP180;7865;50.918;4.510;2024-02-21T02:21:46;101631.00;;;8.40
15607;BMP180;7865;50.918;4.510;2024-02-21T02:26:54;101641.00;;;8.40
15607;BMP180;7865;50.918;4.510;2024-02-21T02:31:55;101638.00;;;8.50
15607;BMP180;7865;50.918;4.510;2024-02-21T02:36:56;101616.00;;;8.50
15607;BMP180;7865;50.918;4.510;2024-02-21T02:41:57;101617.00;;;8.50
15607;BMP180;7865;50.918;4.510;2024-02-21T02:46:58;101609.00;;;8.50
15607;BMP180;7865;50.918;4.510;2024-02-21T02:51:59;101619.00;;;8.50
15607;BMP180;7865;50.918;4.510;2024-02-21T02:57:02;101607.00;;;8.50
15607;BMP180;7865;50.918;4.510;2024-02-21T03:02:04;101581.00;;;8.50
15607;BMP180;7865;50.918;4.510;2024-02-21T03:07:06;101577.00;;;8.50
15607;BMP180;7865;50.918;4.510;2024-02-21T03:12:07;101557.00;;;8.50
15607;BMP180;7865;50.918;4.510;2024-02-21T03:17:08;101540.00;;;8.50
15607;BMP180;7865;50.918;4.510;2024-02-21T03:22:09;101544.00;;;8.50
15607;BMP180;7865;50.918;4.510;2024-02-21T03:27:10;101538.00;;;8.60
15607;BMP180;7865;50.918;4.510;2024-02-21T03:32:12;101531.00;;;8.60
15607;BMP180;7865;50.918;4.510;2024-02-21T03:37:13;101524.00;;;8.60
15607;BMP180;7865;50.918;4.510;2024-02-21T03:42:14;101520.00;;;8.60
15607;BMP180;7865;50.918;4.510;2024-02-21T03:47:15;101506.00;;;8.60
15607;BMP180;7865;50.918;4.510;2024-02-21T03:52:17;101523.00;;;8.60
15607;BMP180;7865;50.918;4.510;2024-02-21T03:57:18;101508.00;;;8.60
15607;BMP180;7865;50.918;4.510;2024-02-21T04:02:19;101512.00;;;8.60
15607;BMP180;7865;50.918;4.510;2024-02-21T04:07:20;101506.00;;;8.50
15607;BMP180;7865;50.918;4.510;2024-02-21T04:12:21;101519.00;;;8.50
15607;BMP180;7865;50.918;4.510;2024-02-21T04:17:22;101507.00;;;8.40
15607;BMP180;7865;50.918;4.510;2024-02-21T04:22:26;101510.00;;;8.40
15607;BMP180;7865;50.918;4.510;2024-02-21T04:27:27;101501.00;;;8.40
15607;BMP180;7865;50.918;4.510;2024-02-21T04:32:28;101494.00;;;8.40
15607;BMP180;7865;50.918;4.510;2024-02-21T04:37:30;101488.00;;;8.40
15607;BMP180;7865;50.918;4.510;2024-02-21T04:42:31;101485.00;;;8.40
15607;BMP180;7865;50.918;4.510;2024-02-21T04:47:33;101475.00;;;8.40
15607;BMP180;7865;50.918;4.510;2024-02-21T04:52:34;101473.00;;;8.40
15607;BMP180;7865;50.918;4.510;2024-02-21T04:57:35;101467.00;;;8.40
15607;BMP180;7865;50.918;4.510;2024-02-21T05:02:36;101455.00;;;8.40
15607;BMP180;7865;50.918;4.510;2024-02-21T05:07:37;101446.00;;;8.40
15607;BMP180;7865;50.918;4.510;2024-02-21T05:12:38;101425.00;;;8.40
15607;BMP180;7865;50.918;4.510;2024-02-21T05:17:40;101406.00;;;8.40
15607;BMP180;7865;50.918;4.510;2024-02-21T05:22:42;101411.00;;;8.40
15607;BMP180;7865;50.918;4.510;2024-02-21T05:27:43;101395.00;;;8.50
15607;BMP180;7865;50.918;4.510;2024-02-21T05:32:44;101389.00;;;8.50
15607;BMP180;7865;50.918;4.510;2024-02-21T05:37:45;101391.00;;;8.50
15607;BMP180;7865;50.918;4.510;2024-02-21T05:42:47;101393.00;;;8.50
15607;BMP180;7865;50.918;4.510;2024-02-21T05:47:48;101377.00;;;8.50
15607;BMP180;7865;50.918;4.510;2024-02-21T05:52:51;101379.00;;;8.50
15607;BMP180;7865;50.918;4.510;2024-02-21T05:57:55;101382.00;;;8.50
15607;BMP180;7865;50.918;4.510;2024-02-21T06:02:56;101360.00;;;8.50
15607;BMP180;7865;50.918;4.510;2024-02-21T06:07:58;101347.00;;;8.50
15607;BMP180;7865;50.918;4.510;2024-02-21T06:12:59;101331.00;;;8.50
15607;BMP180;7865;50.918;4.510;2024-02-21T06:18:00;101333.00;;;8.50
15607;BMP180;7865;50.918;4.510;2024-02-21T06:23:03;101332.00;;;8.50
15607;BMP180;7865;50.918;4.510;2024-02-21T06:28:05;101332.00;;;8.60
15607;BMP180;7865;50.918;4.510;2024-02-21T06:33:06;101333.00;;;8.60
15607;BMP180;7865;50.918;4.510;2024-02-21T06:38:08;101332.00;;;8.60
15607;BMP180;7865;50.918;4.510;2024-02-21T06:43:10;101334.00;;;8.60
15607;BMP180;7865;50.918;4.510;2024-02-21T06:48:11;101340.00;;;8.70
15607;BMP180;7865;50.918;4.510;2024-02-21T06:53:12;101334.00;;;8.70
15607;BMP180;7865;50.918;4.510;2024-02-21T06:58:13;101333.00;;;8.70
15607;BMP180;7865;50.918;4.510;2024-02-21T07:03:16;101330.00;;;8.70
15607;BMP180;7865;50.918;4.510;2024-02-21T07:08:17;101324.00;;;8.70
15607;BMP180;7865;50.918;4.510;2024-02-21T07:13:18;101328.00;;;8.70
15607;BMP180;7865;50.918;4.510;2024-02-21T07:18:20;101325.00;;;8.70
15607;BMP180;7865;50.918;4.510;2024-02-21T07:23:21;101313.00;;;8.70
15607;BMP180;7865;50.918;4.510;2024-02-21T07:28:22;101311.00;;;8.70
15607;BMP180;7865;50.918;4.510;2024-02-21T07:33:24;101306.00;;;8.70
15607;BMP180;7865;50.918;4.510;2024-02-21T07:38:25;101295.00;;;8.60
15607;BMP180;7865;50.918;4.510;2024-02-21T07:43:26;101275.00;;;8.60
15607;BMP180;7865;50.918;4.510;2024-02-21T07:48:27;101270.00;;;8.60
15607;BMP180;7865;50.918;4.510;2024-02-21T07:53:28;101262.00;;;8.60
15607;BMP180;7865;50.918;4.510;2024-02-21T07:58:29;101248.00;;;8.60
15607;BMP180;7865;50.918;4.510;2024-02-21T08:03:31;101238.00;;;8.70
15607;BMP180;7865;50.918;4.510;2024-02-21T08:08:32;101223.00;;;8.80
15607;BMP180;7865;50.918;4.510;2024-02-21T08:13:33;101225.00;;;8.80
15607;BMP180;7865;50.918;4.510;2024-02-21T08:18:34;101205.00;;;8.90
15607;BMP180;7865;50.918;4.510;2024-02-21T08:23:39;101215.00;;;9.00
15607;BMP180;7865;50.918;4.510;2024-02-21T08:28:40;101212.00;;;9.00
15607;BMP180;7865;50.918;4.510;2024-02-21T08:33:42;101214.00;;;9.10
15607;BMP180;7865;50.918;4.510;2024-02-21T08:38:43;101196.00;;;9.20
15607;BMP180;7865;50.918;4.510;2024-02-21T08:43:44;101185.00;;;9.30
15607;BMP180;7865;50.918;4.510;2024-02-21T08:48:45;101174.00;;;9.30
15607;BMP180;7865;50.918;4.510;2024-02-21T08:53:49;101168.00;;;9.40
15607;BMP180;7865;50.918;4.510;2024-02-21T08:58:50;101161.00;;;9.50
15607;BMP180;7865;50.918;4.510;2024-02-21T09:03:52;101152.00;;;9.50
15607;BMP180;7865;50.918;4.510;2024-02-21T09:08:56;101136.00;;;9.60
15607;BMP180;7865;50.918;4.510;2024-02-21T09:13:57;101120.00;;;9.80
15607;BMP180;7865;50.918;4.510;2024-02-21T09:19:00;101109.00;;;10.00
15607;BMP180;7865;50.918;4.510;2024-02-21T09:24:02;101118.00;;;9.90
15607;BMP180;7865;50.918;4.510;2024-02-21T09:29:03;101110.00;;;10.00
15607;BMP180;7865;50.918;4.510;2024-02-21T09:34:04;101074.00;;;10.10
15607;BMP180;7865;50.918;4.510;2024-02-21T09:39:06;101053.00;;;10.50
15607;BMP180;7865;50.918;4.510;2024-02-21T09:44:09;101031.00;;;10.70
15607;BMP180;7865;50.918;4.510;2024-02-21T09:49:25;101014.00;;;10.80
15607;BMP180;7865;50.918;4.510;2024-02-21T09:54:30;101010.00;;;11.00
15607;BMP180;7865;50.918;4.510;2024-02-21T09:59:34;100991.00;;;11.10
15607;BMP180;7865;50.918;4.510;2024-02-21T10:04:36;100987.00;;;11.10
15607;BMP180;7865;50.918;4.510;2024-02-21T10:09:37;100978.00;;;11.20
15607;BMP180;7865;50.918;4.510;2024-02-21T10:14:38;100968.00;;;11.30
15607;BMP180;7865;50.918;4.510;2024-02-21T10:19:40;100964.00;;;11.30
15607;BMP180;7865;50.918;4.510;2024-02-21T10:24:42;100944.00;;;11.60
15607;BMP180;7865;50.918;4.510;2024-02-21T10:29:49;100938.00;;;11.70
15607;BMP180;7865;50.918;4.510;2024-02-21T10:35:01;100908.00;;;11.90
15607;BMP180;7865;50.918;4.510;2024-02-21T10:40:03;100918.00;;;12.10
15607;BMP180;7865;50.918;4.510;2024-02-21T10:45:07;100911.00;;;12.10
15607;BMP180;7865;50.918;4.510;2024-02-21T10:50:10;100916.00;;;12.10
15607;BMP180;7865;50.918;4.510;2024-02-21T10:55:20;100910.00;;;12.10
15607;BMP180;7865;50.918;4.510;2024-02-21T11:00:25;100865.00;;;12.20
15607;BMP180;7865;50.918;4.510;2024-02-21T11:05:32;100853.00;;;12.30
15607;BMP180;7865;50.918;4.510;2024-02-21T11:10:36;100843.00;;;12.60
15607;BMP180;7865;50.918;4.510;2024-02-21T11:15:37;100850.00;;;12.60
15607;BMP180;7865;50.918;4.510;2024-02-21T11:20:39;100830.00;;;12.60
15607;BMP180;7865;50.918;4.510;2024-02-21T11:25:40;100813.00;;;12.40
15607;BMP180;7865;50.918;4.510;2024-02-21T11:30:42;100788.00;;;12.40
15607;BMP180;7865;50.918;4.510;2024-02-21T11:35:44;100788.00;;;12.30
15607;BMP180;7865;50.918;4.510;2024-02-21T11:40:47;100781.00;;;12.30
15607;BMP180;7865;50.918;4.510;2024-02-21T11:45:48;100770.00;;;12.30
15607;BMP180;7865;50.918;4.510;2024-02-21T11:50:56;100757.00;;;12.30
15607;BMP180;7865;50.918;4.510;2024-02-21T11:55:57;100751.00;;;12.20
15607;BMP180;7865;50.918;4.510;2024-02-21T12:00:59;100732.00;;;12.10
15607;BMP180;7865;50.918;4.510;2024-02-21T12:06:01;100727.00;;;12.00
15607;BMP180;7865;50.918;4.510;2024-02-21T12:11:04;100724.00;;;11.90
15607;BMP180;7865;50.918;4.510;2024-02-21T12:16:06;100718.00;;;11.80
15607;BMP180;7865;50.918;4.510;2024-02-21T12:21:07;100722.00;;;11.80
15607;BMP180;7865;50.918;4.510;2024-02-21T12:26:09;100708.00;;;11.80
15607;BMP180;7865;50.918;4.510;2024-02-21T12:31:11;100702.00;;;11.70
15607;BMP180;7865;50.918;4.510;2024-02-21T12:36:12;100699.00;;;11.70
15607;BMP180;7865;50.918;4.510;2024-02-21T12:41:13;100678.00;;;11.70
15607;BMP180;7865;50.918;4.510;2024-02-21T12:46:14;100674.00;;;11.60
15607;BMP180;7865;50.918;4.510;2024-02-21T12:51:16;100656.00;;;11.60
15607;BMP180;7865;50.918;4.510;2024-02-21T12:56:21;100637.00;;;11.60
15607;BMP180;7865;50.918;4.510;2024-02-21T13:01:22;100623.00;;;11.70
15607;BMP180;7865;50.918;4.510;2024-02-21T13:06:24;100599.00;;;11.70
15607;BMP180;7865;50.918;4.510;2024-02-21T13:11:25;100583.00;;;11.80
15607;BMP180;7865;50.918;4.510;2024-02-21T13:16:29;100573.00;;;11.80
15607;BMP180;7865;50.918;4.510;2024-02-21T13:21:30;100557.00;;;11.70
15607;BMP180;7865;50.918;4.510;2024-02-21T13:26:32;100554.00;;;11.60
15607;BMP180;7865;50.918;4.510;2024-02-21T13:31:33;100545.00;;;11.50
15607;BMP180;7865;50.918;4.510;2024-02-21T13:36:35;100532.00;;;11.50
15607;BMP180;7865;50.918;4.510;2024-02-21T13:41:36;100525.00;;;11.40
15607;BMP180;7865;50.918;4.510;2024-02-21T13:46:37;100508.00;;;11.30
15607;BMP180;7865;50.918;4.510;2024-02-21T13:51:38;100492.00;;;11.00
15607;BMP180;7865;50.918;4.510;2024-02-21T13:56:41;100488.00;;;10.80
15607;BMP180;7865;50.918;4.510;2024-02-21T14:01:42;100488.00;;;10.60
15607;BMP180;7865;50.918;4.510;2024-02-21T14:06:44;100480.00;;;10.50
15607;BMP180;7865;50.918;4.510;2024-02-21T14:11:45;100463.00;;;10.40
15607;BMP180;7865;50.918;4.510;2024-02-21T14:16:47;100446.00;;;10.40
15607;BMP180;7865;50.918;4.510;2024-02-21T14:21:49;100430.00;;;10.40
15607;BMP180;7865;50.918;4.510;2024-02-21T14:26:50;100401.00;;;10.30
15607;BMP180;7865;50.918;4.510;2024-02-21T14:31:51;100384.00;;;10.20
15607;BMP180;7865;50.918;4.510;2024-02-21T14:36:52;100375.00;;;10.00
15607;BMP180;7865;50.918;4.510;2024-02-21T14:41:54;100339.00;;;9.90
15607;BMP180;7865;50.918;4.510;2024-02-21T14:46:55;100311.00;;;9.70
15607;BMP180;7865;50.918;4.510;2024-02-21T14:51:56;100293.00;;;9.60
15607;BMP180;7865;50.918;4.510;2024-02-21T14:56:58;100281.00;;;9.50
15607;BMP180;7865;50.918;4.510;2024-02-21T15:01:59;100248.00;;;9.40
15607;BMP180;7865;50.918;4.510;2024-02-21T15:07:01;100235.00;;;9.30
15607;BMP180;7865;50.918;4.510;2024-02-21T15:12:03;100218.00;;;9.20
15607;BMP180;7865;50.918;4.510;2024-02-21T15:17:04;100216.00;;;9.20
15607;BMP180;7865;50.918;4.510;2024-02-21T15:22:06;100193.00;;;9.20
15607;BMP180;7865;50.918;4.510;2024-02-21T15:27:07;100177.00;;;9.10
15607;BMP180;7865;50.918;4.510;2024-02-21T15:32:09;100147.00;;;9.10
15607;BMP180;7865;50.918;4.510;2024-02-21T15:37:10;100144.00;;;9.00
15607;BMP180;7865;50.918;4.510;2024-02-21T15:42:12;100108.00;;;8.90
15607;BMP180;7865;50.918;4.510;2024-02-21T15:47:13;100092.00;;;8.90
15607;BMP180;7865;50.918;4.510;2024-02-21T15:52:16;100099.00;;;8.80
15607;BMP180;7865;50.918;4.510;2024-02-21T15:57:17;100091.00;;;8.80
15607;BMP180;7865;50.918;4.510;2024-02-21T16:02:18;100083.00;;;8.70
15607;BMP180;7865;50.918;4.510;2024-02-21T16:07:20;100064.00;;;8.70
15607;BMP180;7865;50.918;4.510;2024-02-21T16:12:21;100073.00;;;8.70
15607;BMP180;7865;50.918;4.510;2024-02-21T16:17:24;100056.00;;;8.70
15607;BMP180;7865;50.918;4.510;2024-02-21T16:22:25;100051.00;;;8.70
15607;BMP180;7865;50.918;4.510;2024-02-21T16:27:27;100053.00;;;8.70
15607;BMP180;7865;50.918;4.510;2024-02-21T16:32:28;100042.00;;;8.60
15607;BMP180;7865;50.918;4.510;2024-02-21T16:37:29;100028.00;;;8.60
15607;BMP180;7865;50.918;4.510;2024-02-21T16:42:31;100024.00;;;8.60
15607;BMP180;7865;50.918;4.510;2024-02-21T16:47:32;100022.00;;;8.60
15607;BMP180;7865;50.918;4.510;2024-02-21T16:52:34;100003.00;;;8.60
15607;BMP180;7865;50.918;4.510;2024-02-21T16:57:35;100013.00;;;8.60
15607;BMP180;7865;50.918;4.510;2024-02-21T17:02:40;100004.00;;;8.60
15607;BMP180;7865;50.918;4.510;2024-02-21T17:07:55;99984.00;;;8.60
15607;BMP180;7865;50.918;4.510;2024-02-21T17:12:57;99993.00;;;8.50
15607;BMP180;7865;50.918;4.510;2024-02-21T17:17:58;99980.00;;;8.60
15607;BMP180;7865;50.918;4.510;2024-02-21T17:22:59;99978.00;;;8.60
15607;BMP180;7865;50.918;4.510;2024-02-21T17:28:02;99954.00;;;8.60
15607;BMP180;7865;50.918;4.510;2024-02-21T17:33:06;99959.00;;;8.60
15607;BMP180;7865;50.918;4.510;2024-02-21T17:38:10;99944.00;;;8.60
15607;BMP180;7865;50.918;4.510;2024-02-21T17:43:11;99942.00;;;8.60
15607;BMP180;7865;50.918;4.510;2024-02-21T17:48:13;99933.00;;;8.60
15607;BMP180;7865;50.918;4.510;2024-02-21T17:53:15;99920.00;;;8.60
15607;BMP180;7865;50.918;4.510;2024-02-21T17:58:18;99895.00;;;8.60
15607;BMP180;7865;50.918;4.510;2024-02-21T18:03:19;99902.00;;;8.60
15607;BMP180;7865;50.918;4.510;2024-02-21T18:08:21;99884.00;;;8.70
15607;BMP180;7865;50.918;4.510;2024-02-21T18:13:22;99879.00;;;8.70
15607;BMP180;7865;50.918;4.510;2024-02-21T18:18:23;99873.00;;;8.70
15607;BMP180;7865;50.918;4.510;2024-02-21T18:23:24;99870.00;;;8.70
15607;BMP180;7865;50.918;4.510;2024-02-21T18:28:29;99852.00;;;8.70
15607;BMP180;7865;50.918;4.510;2024-02-21T18:33:30;99846.00;;;8.70
15607;BMP180;7865;50.918;4.510;2024-02-21T18:38:31;99825.00;;;8.70
15607;BMP180;7865;50.918;4.510;2024-02-21T18:43:32;99827.00;;;8.80
15607;BMP180;7865;50.918;4.510;2024-02-21T18:48:33;99831.00;;;8.80
15607;BMP180;7865;50.918;4.510;2024-02-21T18:53:34;99818.00;;;8.80
15607;BMP180;7865;50.918;4.510;2024-02-21T18:58:36;99802.00;;;8.80
15607;BMP180;7865;50.918;4.510;2024-02-21T19:03:37;99796.00;;;8.80
15607;BMP180;7865;50.918;4.510;2024-02-21T19:08:38;99803.00;;;8.90
15607;BMP180;7865;50.918;4.510;2024-02-21T19:13:39;99793.00;;;8.90
15607;BMP180;7865;50.918;4.510;2024-02-21T19:18:41;99784.00;;;8.90
15607;BMP180;7865;50.918;4.510;2024-02-21T19:23:43;99782.00;;;8.90
15607;BMP180;7865;50.918;4.510;2024-02-21T19:28:44;99770.00;;;8.90
15607;BMP180;7865;50.918;4.510;2024-02-21T19:33:46;99755.00;;;8.90
15607;BMP180;7865;50.918;4.510;2024-02-21T19:38:47;99746.00;;;8.90
15607;BMP180;7865;50.918;4.510;2024-02-21T19:43:52;99736.00;;;8.90
15607;BMP180;7865;50.918;4.510;2024-02-21T19:48:55;99723.00;;;8.90
15607;BMP180;7865;50.918;4.510;2024-02-21T19:53:56;99719.00;;;9.00
15607;BMP180;7865;50.918;4.510;2024-02-21T19:59:17;99715.00;;;9.00
15607;BMP180;7865;50.918;4.510;2024-02-21T20:04:19;99699.00;;;9.00
15607;BMP180;7865;50.918;4.510;2024-02-21T20:09:20;99694.00;;;9.00
15607;BMP180;7865;50.918;4.510;2024-02-21T20:14:21;99694.00;;;9.00
15607;BMP180;7865;50.918;4.510;2024-02-21T20:19:23;99683.00;;;9.00
15607;BMP180;7865;50.918;4.510;2024-02-21T20:24:24;99679.00;;;9.00
15607;BMP180;7865;50.918;4.510;2024-02-21T20:29:40;99666.00;;;9.00
15607;BMP180;7865;50.918;4.510;2024-02-21T20:34:41;99660.00;;;9.10
15607;BMP180;7865;50.918;4.510;2024-02-21T20:39:44;99645.00;;;9.10
15607;BMP180;7865;50.918;4.510;2024-02-21T20:44:45;99653.00;;;9.10
15607;BMP180;7865;50.918;4.510;2024-02-21T20:49:46;99644.00;;;9.10
15607;BMP180;7865;50.918;4.510;2024-02-21T20:54:47;99645.00;;;9.10
15607;BMP180;7865;50.918;4.510;2024-02-21T20:59:49;99647.00;;;9.10
15607;BMP180;7865;50.918;4.510;2024-02-21T21:04:50;99644.00;;;9.20
15607;BMP180;7865;50.918;4.510;2024-02-21T21:09:51;99648.00;;;9.20
15607;BMP180;7865;50.918;4.510;2024-02-21T21:14:52;99642.00;;;9.20
15607;BMP180;7865;50.918;4.510;2024-02-21T21:19:53;99634.00;;;9.30
15607;BMP180;7865;50.918;4.510;2024-02-21T21:24:55;99628.00;;;9.30
15607;BMP180;7865;50.918;4.510;2024-02-21T21:29:56;99616.00;;;9.30
15607;BMP180;7865;50.918;4.510;2024-02-21T21:34:57;99612.00;;;9.40
15607;BMP180;7865;50.918;4.510;2024-02-21T21:39:59;99603.00;;;9.40
15607;BMP180;7865;50.918;4.510;2024-02-21T21:45:02;99593.00;;;9.40
15607;BMP180;7865;50.918;4.510;2024-02-21T21:50:03;99570.00;;;9.40
15607;BMP180;7865;50.918;4.510;2024-02-21T21:55:05;99581.00;;;9.50
15607;BMP180;7865;50.918;4.510;2024-02-21T22:00:06;99565.00;;;9.50
15607;BMP180;7865;50.918;4.510;2024-02-21T22:05:14;99551.00;;;9.50
15607;BMP180;7865;50.918;4.510;2024-02-21T22:10:16;99548.00;;;9.50
15607;BMP180;7865;50.918;4.510;2024-02-21T22:15:17;99544.00;;;9.50
15607;BMP180;7865;50.918;4.510;2024-02-21T22:20:18;99542.00;;;9.60
15607;BMP180;7865;50.918;4.510;2024-02-21T22:25:26;99548.00;;;9.70
15607;BMP180;7865;50.918;4.510;2024-02-21T22:30:27;99539.00;;;9.70
15607;BMP180;7865;50.918;4.510;2024-02-21T22:35:28;99527.00;;;9.80
15607;BMP180;7865;50.918;4.510;2024-02-21T22:40:29;99522.00;;;9.80
15607;BMP180;7865;50.918;4.510;2024-02-21T22:45:31;99495.00;;;9.80
15607;BMP180;7865;50.918;4.510;2024-02-21T22:50:32;99506.00;;;9.90
15607;BMP180;7865;50.918;4.510;2024-02-21T22:55:33;99503.00;;;9.90
15607;BMP180;7865;50.918;4.510;2024-02-21T23:00:34;99508.00;;;9.90
15607;BMP180;7865;50.918;4.510;2024-02-21T23:05:35;99488.00;;;9.90
15607;BMP180;7865;50.918;4.510;2024-02-21T23:10:37;99492.00;;;9.90
15607;BMP180;7865;50.918;4.510;2024-02-21T23:15:38;99488.00;;;9.90
15607;BMP180;7865;50.918;4.510;2024-02-21T23:20:39;99493.00;;;10.00
15607;BMP180;7865;50.918;4.510;2024-02-21T23:25:40;99500.00;;;10.00
15607;BMP180;7865;50.918;4.510;2024-02-21T23:30:41;99496.00;;;10.00
15607;BMP180;7865;50.918;4.510;2024-02-21T23:35:42;99501.00;;;10.00
15607;BMP180;7865;50.918;4.510;2024-02-21T23:40:44;99494.00;;;10.00
15607;BMP180;7865;50.918;4.510;2024-02-21T23:45:45;99495.00;;;10.00
15607;BMP180;7865;50.918;4.510;2024-02-21T23:50:46;99491.00;;;10.00
15607;BMP180;7865;50.918;4.510;2024-02-21T23:55:47;99478.00;;;10.00
